sensor_id;sensor_type;location;lat;lon;timestamp;P1;durP1;ratioP1;P2;durP2;ratioP2
7583;SDS011;3833;41.764;26.204;2023-02-02T00:01:11;15.77;;;15.17;;
7583;SDS011;3833;41.764;26.204;2023-02-02T00:03:38;14.90;;;14.30;;
7583;SDS011;3833;41.764;26.204;2023-02-02T00:06:06;14.77;;;14.17;;
7583;SDS011;3833;41.764;26.204;2023-02-02T00:08:33;14.20;;;13.60;;
7583;SDS011;3833;41.764;26.204;2023-02-02T00:11:03;15.20;;;14.60;;
7583;SDS011;3833;41.764;26.204;2023-02-02T00:13:31;17.90;;;17.20;;
7583;SDS011;3833;41.764;26.204;2023-02-02T00:15:58;19.77;;;18.97;;
7583;SDS011;3833;41.764;26.204;2023-02-02T00:18:43;6.27;;;5.97;;
7583;SDS011;3833;41.764;26.204;2023-02-02T00:21:11;6.80;;;6.50;;
7583;SDS011;3833;41.764;26.204;2023-02-02T00:23:38;8.63;;;8.30;;
7583;SDS011;3833;41.764;26.204;2023-02-02T00:26:04;17.53;;;16.93;;
7583;SDS011;3833;41.764;26.204;2023-02-02T00:28:31;19.07;;;18.33;;
7583;SDS011;3833;41.764;26.204;2023-02-02T00:30:58;19.53;;;18.83;;
7583;SDS011;3833;41.764;26.204;2023-02-02T00:33:25;21.83;;;21.03;;
7583;SDS011;3833;41.764;26.204;2023-02-02T00:35:52;22.20;;;21.30;;
7583;SDS011;3833;41.764;26.204;2023-02-02T00:38:20;26.03;;;25.03;;
7583;SDS011;3833;41.764;26.204;2023-02-02T00:40:48;27.20;;;26.10;;
7583;SDS011;3833;41.764;26.204;2023-02-02T00:43:14;29.20;;;28.10;;
7583;SDS011;3833;41.764;26.204;2023-02-02T00:45:41;27.67;;;26.57;;
7583;SDS011;3833;41.764;26.204;2023-02-02T00:48:07;27.23;;;26.20;;
7583;SDS011;3833;41.764;26.204;2023-02-02T00:50:35;26.87;;;25.87;;
7583;SDS011;3833;41.764;26.204;2023-02-02T00:53:02;13.23;;;12.73;;
7583;SDS011;3833;41.764;26.204;2023-02-02T00:55:30;13.33;;;12.83;;
7583;SDS011;3833;41.764;26.204;2023-02-02T00:57:57;29.60;;;28.40;;
7583;SDS011;3833;41.764;26.204;2023-02-02T01:00:24;27.73;;;26.53;;
7583;SDS011;3833;41.764;26.204;2023-02-02T01:02:52;38.00;;;36.30;;
7583;SDS011;3833;41.764;26.204;2023-02-02T01:05:20;37.40;;;35.73;;
7583;SDS011;3833;41.764;26.204;2023-02-02T01:07:47;36.20;;;34.83;;
7583;SDS011;3833;41.764;26.204;2023-02-02T01:10:15;29.97;;;28.87;;
7583;SDS011;3833;41.764;26.204;2023-02-02T01:12:44;31.53;;;30.40;;
7583;SDS011;3833;41.764;26.204;2023-02-02T01:15:11;32.77;;;31.57;;
7583;SDS011;3833;41.764;26.204;2023-02-02T01:17:38;31.10;;;29.90;;
7583;SDS011;3833;41.764;26.204;2023-02-02T01:20:06;31.97;;;30.77;;
7583;SDS011;3833;41.764;26.204;2023-02-02T01:22:36;34.97;;;33.47;;
7583;SDS011;3833;41.764;26.204;2023-02-02T01:25:03;34.37;;;32.77;;
7583;SDS011;3833;41.764;26.204;2023-02-02T01:27:30;39.27;;;37.60;;
7583;SDS011;3833;41.764;26.204;2023-02-02T01:29:58;39.17;;;37.47;;
7583;SDS011;3833;41.764;26.204;2023-02-02T01:32:25;39.53;;;37.73;;
7583;SDS011;3833;41.764;26.204;2023-02-02T01:34:52;32.13;;;30.63;;
7583;SDS011;3833;41.764;26.204;2023-02-02T01:37:19;31.83;;;30.43;;
7583;SDS011;3833;41.764;26.204;2023-02-02T01:39:46;30.40;;;28.80;;
7583;SDS011;3833;41.764;26.204;2023-02-02T01:42:14;31.63;;;30.27;;
7583;SDS011;3833;41.764;26.204;2023-02-02T01:47:46;30.17;;;28.77;;
7583;SDS011;3833;41.764;26.204;2023-02-02T01:50:16;32.93;;;31.53;;
7583;SDS011;3833;41.764;26.204;2023-02-02T01:52:44;35.20;;;33.50;;
7583;SDS011;3833;41.764;26.204;2023-02-02T01:55:14;32.90;;;31.30;;
7583;SDS011;3833;41.764;26.204;2023-02-02T01:57:44;34.03;;;32.63;;
7583;SDS011;3833;41.764;26.204;2023-02-02T02:00:15;25.97;;;24.97;;
7583;SDS011;3833;41.764;26.204;2023-02-02T02:02:49;26.93;;;25.87;;
7583;SDS011;3833;41.764;26.204;2023-02-02T02:05:20;27.70;;;26.50;;
7583;SDS011;3833;41.764;26.204;2023-02-02T02:07:53;25.07;;;23.97;;
7583;SDS011;3833;41.764;26.204;2023-02-02T02:10:26;26.33;;;25.33;;
7583;SDS011;3833;41.764;26.204;2023-02-02T02:12:52;29.57;;;28.37;;
7583;SDS011;3833;41.764;26.204;2023-02-02T02:15:21;33.87;;;32.57;;
7583;SDS011;3833;41.764;26.204;2023-02-02T02:18:09;37.10;;;35.70;;
7583;SDS011;3833;41.764;26.204;2023-02-02T02:20:57;38.50;;;37.10;;
7583;SDS011;3833;41.764;26.204;2023-02-02T02:27:41;10.83;;;10.43;;
7583;SDS011;3833;41.764;26.204;2023-02-02T02:30:33;10.43;;;9.93;;
7583;SDS011;3833;41.764;26.204;2023-02-02T02:33:08;15.03;;;14.47;;
7583;SDS011;3833;41.764;26.204;2023-02-02T02:35:41;24.90;;;23.90;;
7583;SDS011;3833;41.764;26.204;2023-02-02T02:38:19;25.63;;;24.63;;
7583;SDS011;3833;41.764;26.204;2023-02-02T02:40:55;24.87;;;23.97;;
7583;SDS011;3833;41.764;26.204;2023-02-02T02:43:26;24.80;;;23.67;;
7583;SDS011;3833;41.764;26.204;2023-02-02T02:45:57;29.73;;;28.23;;
7583;SDS011;3833;41.764;26.204;2023-02-02T02:48:25;39.33;;;37.83;;
7583;SDS011;3833;41.764;26.204;2023-02-02T02:51:03;29.83;;;28.63;;
7583;SDS011;3833;41.764;26.204;2023-02-02T02:53:31;25.87;;;24.77;;
7583;SDS011;3833;41.764;26.204;2023-02-02T02:56:00;26.27;;;25.23;;
7583;SDS011;3833;41.764;26.204;2023-02-02T02:58:38;27.57;;;26.40;;
7583;SDS011;3833;41.764;26.204;2023-02-02T03:01:13;26.93;;;25.80;;
7583;SDS011;3833;41.764;26.204;2023-02-02T03:03:50;27.10;;;26.00;;
7583;SDS011;3833;41.764;26.204;2023-02-02T03:06:27;26.17;;;25.00;;
7583;SDS011;3833;41.764;26.204;2023-02-02T03:09:00;27.27;;;26.17;;
7583;SDS011;3833;41.764;26.204;2023-02-02T03:11:31;25.63;;;24.53;;
7583;SDS011;3833;41.764;26.204;2023-02-02T03:14:00;31.00;;;29.90;;
7583;SDS011;3833;41.764;26.204;2023-02-02T03:16:27;30.97;;;29.77;;
7583;SDS011;3833;41.764;26.204;2023-02-02T03:18:55;30.80;;;29.50;;
7583;SDS011;3833;41.764;26.204;2023-02-02T03:21:22;27.30;;;26.07;;
7583;SDS011;3833;41.764;26.204;2023-02-02T03:23:49;25.17;;;24.13;;
7583;SDS011;3833;41.764;26.204;2023-02-02T03:26:16;26.50;;;25.30;;
7583;SDS011;3833;41.764;26.204;2023-02-02T03:28:43;27.20;;;26.00;;
7583;SDS011;3833;41.764;26.204;2023-02-02T03:31:10;27.27;;;26.17;;
7583;SDS011;3833;41.764;26.204;2023-02-02T03:33:37;25.70;;;24.70;;
7583;SDS011;3833;41.764;26.204;2023-02-02T03:36:05;26.60;;;25.60;;
7583;SDS011;3833;41.764;26.204;2023-02-02T03:38:33;26.07;;;25.00;;
7583;SDS011;3833;41.764;26.204;2023-02-02T03:40:59;26.20;;;25.10;;
7583;SDS011;3833;41.764;26.204;2023-02-02T03:43:26;28.57;;;27.40;;
7583;SDS011;3833;41.764;26.204;2023-02-02T03:45:56;29.90;;;28.60;;
7583;SDS011;3833;41.764;26.204;2023-02-02T03:48:24;24.63;;;23.63;;
7583;SDS011;3833;41.764;26.204;2023-02-02T03:50:51;26.20;;;25.10;;
7583;SDS011;3833;41.764;26.204;2023-02-02T03:53:19;25.83;;;24.47;;
7583;SDS011;3833;41.764;26.204;2023-02-02T03:55:46;24.67;;;23.57;;
7583;SDS011;3833;41.764;26.204;2023-02-02T03:58:13;23.47;;;22.47;;
7583;SDS011;3833;41.764;26.204;2023-02-02T04:00:41;22.97;;;22.00;;
7583;SDS011;3833;41.764;26.204;2023-02-02T04:03:08;24.30;;;23.40;;
7583;SDS011;3833;41.764;26.204;2023-02-02T04:05:35;23.40;;;22.23;;
7583;SDS011;3833;41.764;26.204;2023-02-02T04:08:02;23.63;;;22.73;;
7583;SDS011;3833;41.764;26.204;2023-02-02T04:10:30;27.93;;;26.83;;
7583;SDS011;3833;41.764;26.204;2023-02-02T04:12:56;27.53;;;26.43;;
7583;SDS011;3833;41.764;26.204;2023-02-02T04:15:23;27.53;;;26.53;;
7583;SDS011;3833;41.764;26.204;2023-02-02T04:17:50;23.07;;;22.23;;
7583;SDS011;3833;41.764;26.204;2023-02-02T04:20:17;22.93;;;21.83;;
7583;SDS011;3833;41.764;26.204;2023-02-02T04:22:44;22.90;;;22.03;;
7583;SDS011;3833;41.764;26.204;2023-02-02T04:25:11;23.53;;;22.63;;
7583;SDS011;3833;41.764;26.204;2023-02-02T04:27:39;22.17;;;21.27;;
7583;SDS011;3833;41.764;26.204;2023-02-02T04:30:06;28.30;;;27.00;;
7583;SDS011;3833;41.764;26.204;2023-02-02T04:32:34;22.37;;;21.47;;
7583;SDS011;3833;41.764;26.204;2023-02-02T04:35:01;22.13;;;21.23;;
7583;SDS011;3833;41.764;26.204;2023-02-02T04:37:29;21.60;;;20.73;;
7583;SDS011;3833;41.764;26.204;2023-02-02T04:39:56;20.57;;;19.77;;
7583;SDS011;3833;41.764;26.204;2023-02-02T04:42:23;5.93;;;5.63;;
7583;SDS011;3833;41.764;26.204;2023-02-02T04:44:51;6.13;;;5.83;;
7583;SDS011;3833;41.764;26.204;2023-02-02T04:47:18;5.20;;;4.90;;
7583;SDS011;3833;41.764;26.204;2023-02-02T04:49:45;9.57;;;9.03;;
7583;SDS011;3833;41.764;26.204;2023-02-02T04:52:11;10.10;;;9.60;;
7583;SDS011;3833;41.764;26.204;2023-02-02T04:54:38;19.10;;;18.40;;
7583;SDS011;3833;41.764;26.204;2023-02-02T04:57:05;26.30;;;25.30;;
7583;SDS011;3833;41.764;26.204;2023-02-02T04:59:32;27.50;;;26.37;;
7583;SDS011;3833;41.764;26.204;2023-02-02T05:02:00;27.70;;;26.57;;
7583;SDS011;3833;41.764;26.204;2023-02-02T05:04:28;27.07;;;26.07;;
7583;SDS011;3833;41.764;26.204;2023-02-02T05:06:55;22.13;;;21.33;;
7583;SDS011;3833;41.764;26.204;2023-02-02T05:09:22;22.53;;;21.60;;
7583;SDS011;3833;41.764;26.204;2023-02-02T05:11:49;22.07;;;21.27;;
7583;SDS011;3833;41.764;26.204;2023-02-02T05:14:15;22.77;;;21.90;;
7583;SDS011;3833;41.764;26.204;2023-02-02T05:16:44;25.67;;;24.67;;
7583;SDS011;3833;41.764;26.204;2023-02-02T05:19:12;26.57;;;25.37;;
7583;SDS011;3833;41.764;26.204;2023-02-02T05:21:41;29.43;;;28.30;;
7583;SDS011;3833;41.764;26.204;2023-02-02T05:24:08;11.77;;;11.27;;
7583;SDS011;3833;41.764;26.204;2023-02-02T05:26:36;7.53;;;7.13;;
7583;SDS011;3833;41.764;26.204;2023-02-02T05:29:02;7.80;;;7.50;;
7583;SDS011;3833;41.764;26.204;2023-02-02T05:31:30;9.40;;;9.00;;
7583;SDS011;3833;41.764;26.204;2023-02-02T05:33:58;8.90;;;8.43;;
7583;SDS011;3833;41.764;26.204;2023-02-02T05:36:26;7.10;;;6.57;;
7583;SDS011;3833;41.764;26.204;2023-02-02T05:38:53;9.13;;;8.67;;
7583;SDS011;3833;41.764;26.204;2023-02-02T05:41:20;7.57;;;7.20;;
7583;SDS011;3833;41.764;26.204;2023-02-02T05:43:47;11.00;;;10.50;;
7583;SDS011;3833;41.764;26.204;2023-02-02T05:46:13;12.30;;;11.80;;
7583;SDS011;3833;41.764;26.204;2023-02-02T05:48:40;12.80;;;12.20;;
7583;SDS011;3833;41.764;26.204;2023-02-02T05:51:09;11.23;;;10.53;;
7583;SDS011;3833;41.764;26.204;2023-02-02T05:53:42;12.93;;;12.33;;
7583;SDS011;3833;41.764;26.204;2023-02-02T05:56:10;12.60;;;12.10;;
7583;SDS011;3833;41.764;26.204;2023-02-02T05:58:37;12.67;;;12.07;;
7583;SDS011;3833;41.764;26.204;2023-02-02T06:01:04;12.30;;;11.70;;
7583;SDS011;3833;41.764;26.204;2023-02-02T06:03:31;12.83;;;12.33;;
7583;SDS011;3833;41.764;26.204;2023-02-02T06:05:58;13.40;;;12.90;;
7583;SDS011;3833;41.764;26.204;2023-02-02T06:08:25;12.30;;;11.80;;
7583;SDS011;3833;41.764;26.204;2023-02-02T06:10:53;9.40;;;8.97;;
7583;SDS011;3833;41.764;26.204;2023-02-02T06:13:20;9.70;;;9.10;;
7583;SDS011;3833;41.764;26.204;2023-02-02T06:15:47;10.10;;;9.60;;
7583;SDS011;3833;41.764;26.204;2023-02-02T06:18:14;6.97;;;6.30;;
7583;SDS011;3833;41.764;26.204;2023-02-02T06:20:41;6.70;;;6.30;;
7583;SDS011;3833;41.764;26.204;2023-02-02T06:23:08;6.30;;;6.00;;
7583;SDS011;3833;41.764;26.204;2023-02-02T06:25:35;6.57;;;6.17;;
7583;SDS011;3833;41.764;26.204;2023-02-02T06:28:03;6.07;;;5.73;;
7583;SDS011;3833;41.764;26.204;2023-02-02T06:30:30;7.47;;;7.07;;
7583;SDS011;3833;41.764;26.204;2023-02-02T06:32:57;11.80;;;11.30;;
7583;SDS011;3833;41.764;26.204;2023-02-02T06:35:24;25.60;;;24.60;;
7583;SDS011;3833;41.764;26.204;2023-02-02T06:37:51;24.97;;;24.07;;
7583;SDS011;3833;41.764;26.204;2023-02-02T06:40:18;24.17;;;23.27;;
7583;SDS011;3833;41.764;26.204;2023-02-02T06:42:45;16.93;;;16.23;;
7583;SDS011;3833;41.764;26.204;2023-02-02T06:45:13;26.23;;;25.07;;
7583;SDS011;3833;41.764;26.204;2023-02-02T06:47:40;25.03;;;24.07;;
7583;SDS011;3833;41.764;26.204;2023-02-02T06:50:07;50.70;;;48.70;;
7583;SDS011;3833;41.764;26.204;2023-02-02T06:52:36;49.07;;;46.87;;
7583;SDS011;3833;41.764;26.204;2023-02-02T06:55:03;49.27;;;47.27;;
7583;SDS011;3833;41.764;26.204;2023-02-02T06:57:30;48.53;;;46.63;;
7583;SDS011;3833;41.764;26.204;2023-02-02T06:59:57;45.00;;;43.23;;
7583;SDS011;3833;41.764;26.204;2023-02-02T07:02:25;49.97;;;47.97;;
7583;SDS011;3833;41.764;26.204;2023-02-02T07:04:52;48.83;;;46.93;;
7583;SDS011;3833;41.764;26.204;2023-02-02T07:07:19;48.53;;;46.63;;
7583;SDS011;3833;41.764;26.204;2023-02-02T07:09:46;50.53;;;48.43;;
7583;SDS011;3833;41.764;26.204;2023-02-02T07:12:13;41.93;;;40.23;;
7583;SDS011;3833;41.764;26.204;2023-02-02T07:14:39;50.43;;;48.27;;
7583;SDS011;3833;41.764;26.204;2023-02-02T07:17:06;50.60;;;48.50;;
7583;SDS011;3833;41.764;26.204;2023-02-02T07:19:34;40.50;;;39.00;;
7583;SDS011;3833;41.764;26.204;2023-02-02T07:22:01;38.97;;;37.47;;
7583;SDS011;3833;41.764;26.204;2023-02-02T07:24:28;39.83;;;38.33;;
7583;SDS011;3833;41.764;26.204;2023-02-02T07:26:56;40.37;;;38.70;;
7583;SDS011;3833;41.764;26.204;2023-02-02T07:29:23;41.50;;;39.90;;
7583;SDS011;3833;41.764;26.204;2023-02-02T07:31:50;30.47;;;29.17;;
7583;SDS011;3833;41.764;26.204;2023-02-02T07:34:17;34.53;;;33.23;;
7583;SDS011;3833;41.764;26.204;2023-02-02T07:36:45;35.87;;;34.40;;
7583;SDS011;3833;41.764;26.204;2023-02-02T07:39:12;19.63;;;18.83;;
7583;SDS011;3833;41.764;26.204;2023-02-02T07:41:39;21.53;;;20.73;;
7583;SDS011;3833;41.764;26.204;2023-02-02T07:44:09;13.07;;;12.47;;
7583;SDS011;3833;41.764;26.204;2023-02-02T07:46:39;37.03;;;35.57;;
7583;SDS011;3833;41.764;26.204;2023-02-02T07:49:06;35.37;;;34.00;;
7583;SDS011;3833;41.764;26.204;2023-02-02T07:51:33;35.77;;;34.37;;
7583;SDS011;3833;41.764;26.204;2023-02-02T07:54:01;34.57;;;33.27;;
7583;SDS011;3833;41.764;26.204;2023-02-02T07:56:28;36.90;;;35.17;;
7583;SDS011;3833;41.764;26.204;2023-02-02T07:58:55;25.00;;;24.00;;
7583;SDS011;3833;41.764;26.204;2023-02-02T08:01:22;34.63;;;33.23;;
7583;SDS011;3833;41.764;26.204;2023-02-02T08:03:51;24.90;;;23.80;;
7583;SDS011;3833;41.764;26.204;2023-02-02T08:06:19;29.37;;;28.27;;
7583;SDS011;3833;41.764;26.204;2023-02-02T08:08:48;40.37;;;38.57;;
7583;SDS011;3833;41.764;26.204;2023-02-02T08:11:16;39.47;;;37.87;;
7583;SDS011;3833;41.764;26.204;2023-02-02T08:13:47;37.00;;;35.50;;
7583;SDS011;3833;41.764;26.204;2023-02-02T08:16:15;40.43;;;38.53;;
7583;SDS011;3833;41.764;26.204;2023-02-02T08:18:42;40.43;;;38.73;;
7583;SDS011;3833;41.764;26.204;2023-02-02T08:21:09;39.57;;;37.97;;
7583;SDS011;3833;41.764;26.204;2023-02-02T08:23:37;39.60;;;38.00;;
7583;SDS011;3833;41.764;26.204;2023-02-02T08:26:06;41.20;;;39.33;;
7583;SDS011;3833;41.764;26.204;2023-02-02T08:28:36;40.33;;;38.60;;
7583;SDS011;3833;41.764;26.204;2023-02-02T08:31:04;39.67;;;38.07;;
7583;SDS011;3833;41.764;26.204;2023-02-02T08:33:31;38.30;;;36.80;;
7583;SDS011;3833;41.764;26.204;2023-02-02T08:35:58;39.30;;;37.70;;
7583;SDS011;3833;41.764;26.204;2023-02-02T08:38:25;38.17;;;36.57;;
7583;SDS011;3833;41.764;26.204;2023-02-02T08:40:52;38.30;;;36.80;;
7583;SDS011;3833;41.764;26.204;2023-02-02T08:43:19;38.97;;;37.27;;
7583;SDS011;3833;41.764;26.204;2023-02-02T08:45:47;38.50;;;37.00;;
7583;SDS011;3833;41.764;26.204;2023-02-02T08:48:16;38.30;;;36.80;;
7583;SDS011;3833;41.764;26.204;2023-02-02T08:50:50;40.47;;;38.77;;
7583;SDS011;3833;41.764;26.204;2023-02-02T08:53:17;39.10;;;37.60;;
7583;SDS011;3833;41.764;26.204;2023-02-02T08:55:44;40.33;;;38.53;;
7583;SDS011;3833;41.764;26.204;2023-02-02T08:58:11;40.33;;;38.73;;
7583;SDS011;3833;41.764;26.204;2023-02-02T09:00:38;39.07;;;37.67;;
7583;SDS011;3833;41.764;26.204;2023-02-02T09:03:06;41.93;;;40.13;;
7583;SDS011;3833;41.764;26.204;2023-02-02T09:05:34;39.40;;;37.90;;
7583;SDS011;3833;41.764;26.204;2023-02-02T09:08:02;40.20;;;38.60;;
7583;SDS011;3833;41.764;26.204;2023-02-02T09:10:29;40.60;;;39.00;;
7583;SDS011;3833;41.764;26.204;2023-02-02T09:12:56;40.07;;;38.40;;
7583;SDS011;3833;41.764;26.204;2023-02-02T09:15:23;40.20;;;38.60;;
7583;SDS011;3833;41.764;26.204;2023-02-02T09:17:50;28.67;;;27.57;;
7583;SDS011;3833;41.764;26.204;2023-02-02T09:20:19;19.60;;;18.90;;
7583;SDS011;3833;41.764;26.204;2023-02-02T09:22:46;19.33;;;18.53;;
7583;SDS011;3833;41.764;26.204;2023-02-02T09:25:13;39.40;;;37.80;;
7583;SDS011;3833;41.764;26.204;2023-02-02T09:27:40;40.27;;;38.67;;
7583;SDS011;3833;41.764;26.204;2023-02-02T09:30:07;39.07;;;37.47;;
7583;SDS011;3833;41.764;26.204;2023-02-02T09:32:34;40.10;;;38.50;;
7583;SDS011;3833;41.764;26.204;2023-02-02T09:35:01;35.03;;;33.43;;
7583;SDS011;3833;41.764;26.204;2023-02-02T09:37:30;39.47;;;37.27;;
7583;SDS011;3833;41.764;26.204;2023-02-02T09:39:58;43.70;;;41.63;;
7583;SDS011;3833;41.764;26.204;2023-02-02T09:42:29;40.43;;;38.83;;
7583;SDS011;3833;41.764;26.204;2023-02-02T09:45:06;41.10;;;39.43;;
7583;SDS011;3833;41.764;26.204;2023-02-02T09:50:37;41.80;;;40.10;;
7583;SDS011;3833;41.764;26.204;2023-02-02T09:53:12;38.80;;;37.17;;
7583;SDS011;3833;41.764;26.204;2023-02-02T09:55:46;41.23;;;39.50;;
7583;SDS011;3833;41.764;26.204;2023-02-02T09:58:17;40.20;;;38.60;;
7583;SDS011;3833;41.764;26.204;2023-02-02T10:00:47;40.00;;;38.40;;
7583;SDS011;3833;41.764;26.204;2023-02-02T10:03:22;40.33;;;38.73;;
7583;SDS011;3833;41.764;26.204;2023-02-02T10:05:54;39.17;;;37.67;;
7583;SDS011;3833;41.764;26.204;2023-02-02T10:08:31;40.07;;;38.47;;
7583;SDS011;3833;41.764;26.204;2023-02-02T10:11:03;38.53;;;36.97;;
7583;SDS011;3833;41.764;26.204;2023-02-02T10:13:41;40.40;;;38.67;;
7583;SDS011;3833;41.764;26.204;2023-02-02T10:16:12;39.80;;;38.10;;
7583;SDS011;3833;41.764;26.204;2023-02-02T10:18:44;38.33;;;36.63;;
7583;SDS011;3833;41.764;26.204;2023-02-02T10:21:16;38.53;;;37.03;;
7583;SDS011;3833;41.764;26.204;2023-02-02T10:23:50;39.70;;;38.07;;
7583;SDS011;3833;41.764;26.204;2023-02-02T10:26:19;38.33;;;36.87;;
7583;SDS011;3833;41.764;26.204;2023-02-02T10:28:52;38.77;;;37.17;;
7583;SDS011;3833;41.764;26.204;2023-02-02T10:31:32;36.77;;;35.37;;
7583;SDS011;3833;41.764;26.204;2023-02-02T10:34:09;37.87;;;36.37;;
7583;SDS011;3833;41.764;26.204;2023-02-02T10:36:49;36.97;;;35.57;;
7583;SDS011;3833;41.764;26.204;2023-02-02T10:39:29;37.83;;;36.37;;
7583;SDS011;3833;41.764;26.204;2023-02-02T10:42:08;38.77;;;37.17;;
7583;SDS011;3833;41.764;26.204;2023-02-02T10:44:44;38.87;;;37.27;;
7583;SDS011;3833;41.764;26.204;2023-02-02T10:47:18;36.07;;;34.67;;
7583;SDS011;3833;41.764;26.204;2023-02-02T10:49:53;35.63;;;34.23;;
7583;SDS011;3833;41.764;26.204;2023-02-02T10:52:30;42.83;;;41.03;;
7583;SDS011;3833;41.764;26.204;2023-02-02T10:55:01;46.20;;;44.30;;
7583;SDS011;3833;41.764;26.204;2023-02-02T10:57:42;44.77;;;42.97;;
7583;SDS011;3833;41.764;26.204;2023-02-02T11:00:20;41.97;;;40.17;;
7583;SDS011;3833;41.764;26.204;2023-02-02T11:02:50;36.57;;;35.17;;
7583;SDS011;3833;41.764;26.204;2023-02-02T11:05:19;38.33;;;36.83;;
7583;SDS011;3833;41.764;26.204;2023-02-02T11:08:11;43.10;;;41.33;;
7583;SDS011;3833;41.764;26.204;2023-02-02T11:10:43;42.83;;;41.03;;
7583;SDS011;3833;41.764;26.204;2023-02-02T11:13:11;24.37;;;23.37;;
7583;SDS011;3833;41.764;26.204;2023-02-02T11:15:44;14.73;;;13.93;;
7583;SDS011;3833;41.764;26.204;2023-02-02T11:18:12;14.70;;;13.90;;
7583;SDS011;3833;41.764;26.204;2023-02-02T11:20:41;32.23;;;30.93;;
7583;SDS011;3833;41.764;26.204;2023-02-02T11:23:14;36.73;;;35.23;;
7583;SDS011;3833;41.764;26.204;2023-02-02T11:25:45;42.03;;;40.30;;
7583;SDS011;3833;41.764;26.204;2023-02-02T11:28:23;44.27;;;42.37;;
7583;SDS011;3833;41.764;26.204;2023-02-02T11:30:54;36.10;;;34.43;;
7583;SDS011;3833;41.764;26.204;2023-02-02T11:33:25;40.90;;;39.10;;
7583;SDS011;3833;41.764;26.204;2023-02-02T11:35:54;43.03;;;41.23;;
7583;SDS011;3833;41.764;26.204;2023-02-02T11:38:23;39.23;;;37.63;;
7583;SDS011;3833;41.764;26.204;2023-02-02T11:40:56;43.77;;;42.07;;
7583;SDS011;3833;41.764;26.204;2023-02-02T11:43:28;42.27;;;40.67;;
7583;SDS011;3833;41.764;26.204;2023-02-02T11:45:58;42.23;;;40.57;;
7583;SDS011;3833;41.764;26.204;2023-02-02T11:48:29;43.53;;;41.83;;
7583;SDS011;3833;41.764;26.204;2023-02-02T11:50:59;43.30;;;41.50;;
7583;SDS011;3833;41.764;26.204;2023-02-02T11:53:27;43.43;;;41.63;;
7583;SDS011;3833;41.764;26.204;2023-02-02T11:55:58;42.83;;;41.13;;
7583;SDS011;3833;41.764;26.204;2023-02-02T11:58:31;45.90;;;43.90;;
7583;SDS011;3833;41.764;26.204;2023-02-02T12:01:15;44.17;;;42.40;;
7583;SDS011;3833;41.764;26.204;2023-02-02T12:03:49;46.00;;;43.80;;
7583;SDS011;3833;41.764;26.204;2023-02-02T12:06:18;43.20;;;41.50;;
7583;SDS011;3833;41.764;26.204;2023-02-02T12:08:46;42.80;;;41.10;;
7583;SDS011;3833;41.764;26.204;2023-02-02T12:11:23;42.33;;;40.73;;
7583;SDS011;3833;41.764;26.204;2023-02-02T12:14:07;43.03;;;41.17;;
7583;SDS011;3833;41.764;26.204;2023-02-02T12:16:47;46.10;;;44.20;;
7583;SDS011;3833;41.764;26.204;2023-02-02T12:22:18;39.03;;;37.53;;
7583;SDS011;3833;41.764;26.204;2023-02-02T12:24:56;46.70;;;44.70;;
7583;SDS011;3833;41.764;26.204;2023-02-02T12:27:34;44.03;;;42.23;;
7583;SDS011;3833;41.764;26.204;2023-02-02T12:30:12;47.40;;;45.37;;
7583;SDS011;3833;41.764;26.204;2023-02-02T12:35:57;44.40;;;42.50;;
7583;SDS011;3833;41.764;26.204;2023-02-02T12:38:40;44.20;;;42.37;;
7583;SDS011;3833;41.764;26.204;2023-02-02T12:41:29;44.77;;;42.87;;
7583;SDS011;3833;41.764;26.204;2023-02-02T12:44:12;45.87;;;43.83;;
7583;SDS011;3833;41.764;26.204;2023-02-02T12:46:54;47.07;;;44.97;;
7583;SDS011;3833;41.764;26.204;2023-02-02T12:52:28;46.80;;;44.83;;
7583;SDS011;3833;41.764;26.204;2023-02-02T12:55:14;47.27;;;45.17;;
7583;SDS011;3833;41.764;26.204;2023-02-02T12:57:49;43.47;;;41.60;;
7583;SDS011;3833;41.764;26.204;2023-02-02T13:00:27;45.73;;;43.73;;
7583;SDS011;3833;41.764;26.204;2023-02-02T13:03:17;44.83;;;42.93;;
7583;SDS011;3833;41.764;26.204;2023-02-02T13:05:56;44.23;;;42.33;;
7583;SDS011;3833;41.764;26.204;2023-02-02T13:08:31;41.37;;;39.67;;
7583;SDS011;3833;41.764;26.204;2023-02-02T13:11:04;42.97;;;41.17;;
7583;SDS011;3833;41.764;26.204;2023-02-02T13:13:53;44.20;;;42.40;;
7583;SDS011;3833;41.764;26.204;2023-02-02T13:16:26;42.77;;;40.93;;
7583;SDS011;3833;41.764;26.204;2023-02-02T13:18:58;23.17;;;22.23;;
7583;SDS011;3833;41.764;26.204;2023-02-02T13:21:29;26.97;;;25.77;;
7583;SDS011;3833;41.764;26.204;2023-02-02T13:23:58;45.17;;;43.17;;
7583;SDS011;3833;41.764;26.204;2023-02-02T13:26:28;43.87;;;42.07;;
7583;SDS011;3833;41.764;26.204;2023-02-02T13:29:04;45.83;;;43.87;;
7583;SDS011;3833;41.764;26.204;2023-02-02T13:31:37;43.83;;;42.03;;
7583;SDS011;3833;41.764;26.204;2023-02-02T13:34:13;46.87;;;44.87;;
7583;SDS011;3833;41.764;26.204;2023-02-02T13:36:45;47.07;;;45.07;;
7583;SDS011;3833;41.764;26.204;2023-02-02T13:39:19;47.60;;;45.47;;
7583;SDS011;3833;41.764;26.204;2023-02-02T13:41:52;49.23;;;46.73;;
7583;SDS011;3833;41.764;26.204;2023-02-02T13:44:20;49.50;;;47.30;;
7583;SDS011;3833;41.764;26.204;2023-02-02T13:46:55;51.97;;;49.37;;
7583;SDS011;3833;41.764;26.204;2023-02-02T13:49:27;50.57;;;48.07;;
7583;SDS011;3833;41.764;26.204;2023-02-02T13:55:19;49.23;;;47.17;;
7583;SDS011;3833;41.764;26.204;2023-02-02T13:58:11;50.80;;;48.47;;
7583;SDS011;3833;41.764;26.204;2023-02-02T14:00:56;38.23;;;36.70;;
7583;SDS011;3833;41.764;26.204;2023-02-02T14:03:32;46.20;;;44.30;;
7583;SDS011;3833;41.764;26.204;2023-02-02T14:06:04;45.90;;;44.00;;
7583;SDS011;3833;41.764;26.204;2023-02-02T14:08:33;49.63;;;47.63;;
7583;SDS011;3833;41.764;26.204;2023-02-02T14:11:01;48.40;;;46.40;;
7583;SDS011;3833;41.764;26.204;2023-02-02T14:13:33;50.03;;;47.90;;
7583;SDS011;3833;41.764;26.204;2023-02-02T14:19:14;40.30;;;38.63;;
7583;SDS011;3833;41.764;26.204;2023-02-02T14:21:58;49.20;;;47.20;;
7583;SDS011;3833;41.764;26.204;2023-02-02T14:24:40;49.50;;;47.40;;
7583;SDS011;3833;41.764;26.204;2023-02-02T14:30:31;45.47;;;43.47;;
7583;SDS011;3833;41.764;26.204;2023-02-02T14:36:11;46.10;;;44.10;;
7583;SDS011;3833;41.764;26.204;2023-02-02T14:38:49;45.13;;;43.33;;
7583;SDS011;3833;41.764;26.204;2023-02-02T14:41:28;46.43;;;44.43;;
7583;SDS011;3833;41.764;26.204;2023-02-02T14:44:21;52.03;;;47.43;;
7583;SDS011;3833;41.764;26.204;2023-02-02T14:46:48;45.83;;;43.93;;
7583;SDS011;3833;41.764;26.204;2023-02-02T14:49:19;44.77;;;42.90;;
7583;SDS011;3833;41.764;26.204;2023-02-02T14:51:52;45.17;;;43.27;;
7583;SDS011;3833;41.764;26.204;2023-02-02T14:54:29;44.53;;;42.73;;
7583;SDS011;3833;41.764;26.204;2023-02-02T14:56:59;46.37;;;44.57;;
7583;SDS011;3833;41.764;26.204;2023-02-02T14:59:30;50.27;;;48.17;;
7583;SDS011;3833;41.764;26.204;2023-02-02T15:02:05;46.03;;;44.03;;
7583;SDS011;3833;41.764;26.204;2023-02-02T15:04:40;46.67;;;44.67;;
7583;SDS011;3833;41.764;26.204;2023-02-02T15:07:35;46.00;;;44.20;;
7583;SDS011;3833;41.764;26.204;2023-02-02T15:13:18;44.80;;;43.00;;
7583;SDS011;3833;41.764;26.204;2023-02-02T15:15:47;46.33;;;44.43;;
7583;SDS011;3833;41.764;26.204;2023-02-02T15:18:20;45.90;;;44.10;;
7583;SDS011;3833;41.764;26.204;2023-02-02T15:20:53;46.23;;;44.30;;
7583;SDS011;3833;41.764;26.204;2023-02-02T15:23:26;49.10;;;47.10;;
7583;SDS011;3833;41.764;26.204;2023-02-02T15:25:58;48.27;;;46.37;;
7583;SDS011;3833;41.764;26.204;2023-02-02T15:28:33;23.63;;;22.67;;
7583;SDS011;3833;41.764;26.204;2023-02-02T15:31:15;24.70;;;23.80;;